Time;durP1;ratioP1;P1;durP2;ratioP2;P2;SDS_P1;SDS_P2;PMS_P1;PMS_P2;Temp;Humidity;BMP_temperature;BMP_pressure;BME280_temperature;BME280_humidity;BME280_pressure;Samples;Min_cycle;Max_cycle;Signal;HPM_P1;HPM_P2
2023/06/14 17:31:00;;;;;;;1.23;0.73;;;;;;;;;;7397306;19;20529;-92
2023/06/14 17:33:27;;;;;;;0.60;0.60;;;;;;;;;;7393600;19;20184;-91
2023/06/14 17:35:53;;;;;;;0.68;0.68;;;;;;;;;;7397989;19;20501;-91
2023/06/14 17:38:20;;;;;;;0.70;0.70;;;;;;;;;;7396075;19;20156;-91
2023/06/14 17:40:47;;;;;;;0.52;0.52;;;;;;;;;;7400419;19;20204;-91
2023/06/14 17:43:17;;;;;;;1.00;0.82;;;;;;;;;;7394495;19;20157;-91
2023/06/14 17:45:43;;;;;;;0.60;0.60;;;;;;;;;;7391565;19;20137;-91
2023/06/14 17:48:10;;;;;;;0.40;0.40;;;;;;;;;;7391696;19;20201;-91
2023/06/14 17:50:38;;;;;;;0.88;0.88;;;;;;;;;;7391669;19;20216;-92
2023/06/14 17:53:06;;;;;;;0.70;0.70;;;;;;;;;;7393578;19;20157;-91
2023/06/14 17:55:35;;;;;;;0.73;0.73;;;;;;;;;;7393880;19;20164;-91
2023/06/14 17:58:03;;;;;;;1.25;1.15;;;;;;;;;;7395158;19;20171;-90
2023/06/14 18:00:30;;;;;;;0.50;0.50;;;;;;;;;;7392575;19;20176;-92
2023/06/14 18:02:59;;;;;;;0.70;0.70;;;;;;;;;;7394887;19;20169;-90
2023/06/14 18:05:26;;;;;;;0.70;0.70;;;;;;;;;;7393157;19;20136;-91
2023/06/14 18:07:53;;;;;;;0.90;0.90;;;;;;;;;;7393848;19;20577;-91
2023/06/14 18:10:21;;;;;;;0.82;0.82;;;;;;;;;;7393045;19;20154;-92
2023/06/14 18:12:48;;;;;;;0.60;0.60;;;;;;;;;;7391574;19;20224;-93
2023/06/14 18:15:15;;;;;;;0.80;0.80;;;;;;;;;;7391780;19;20174;-92
2023/06/14 18:17:42;;;;;;;1.00;0.82;;;;;;;;;;7394599;19;20132;-91
2023/06/14 18:20:09;;;;;;;0.93;0.90;;;;;;;;;;7394455;19;20568;-93
2023/06/14 18:22:36;;;;;;;0.90;0.90;;;;;;;;;;7391412;19;20149;-91
2023/06/14 18:25:03;;;;;;;0.65;0.65;;;;;;;;;;7391887;19;20204;-91
2023/06/14 18:27:29;;;;;;;0.95;0.75;;;;;;;;;;7401074;19;20147;-92
2023/06/14 18:29:56;;;;;;;0.60;0.60;;;;;;;;;;7406398;19;20192;-92
2023/06/14 18:32:23;;;;;;;0.50;0.50;;;;;;;;;;7393966;19;20145;-91
2023/06/14 18:34:49;;;;;;;0.63;0.63;;;;;;;;;;7391922;19;20141;-91
2023/06/14 18:37:16;;;;;;;1.00;0.88;;;;;;;;;;7393404;19;20144;-93
2023/06/14 18:39:43;;;;;;;0.70;0.70;;;;;;;;;;7394717;19;20136;-91
2023/06/14 18:42:11;;;;;;;0.80;0.80;;;;;;;;;;7393643;19;20149;-91
2023/06/14 18:44:38;;;;;;;0.75;0.75;;;;;;;;;;7394357;19;20234;-91
2023/06/14 18:47:05;;;;;;;0.50;0.50;;;;;;;;;;7397564;19;20137;-90
2023/06/14 18:49:35;;;;;;;0.63;0.63;;;;;;;;;;7392652;19;20487;-91
2023/06/14 18:52:01;;;;;;;0.52;0.52;;;;;;;;;;7394871;19;20152;-91
2023/06/14 18:54:28;;;;;;;0.45;0.45;;;;;;;;;;7401984;19;20503;-91
2023/06/14 18:56:55;;;;;;;1.90;1.02;;;;;;;;;;7400320;19;20145;-91
2023/06/14 18:59:21;;;;;;;1.08;1.08;;;;;;;;;;7400504;19;20663;-91
2023/06/14 19:01:48;;;;;;;1.15;1.00;;;;;;;;;;7396701;19;20169;-93
2023/06/14 19:04:15;;;;;;;0.65;0.65;;;;;;;;;;7396752;19;20162;-91
2023/06/14 19:06:42;;;;;;;0.47;0.47;;;;;;;;;;7398429;19;20154;-92
2023/06/14 19:09:11;;;;;;;1.02;0.95;;;;;;;;;;7402026;19;20141;-90
2023/06/14 19:11:40;;;;;;;0.93;0.93;;;;;;;;;;7400733;19;20158;-90
2023/06/14 19:14:07;;;;;;;1.05;1.02;;;;;;;;;;7402752;19;20145;-91
2023/06/14 19:16:34;;;;;;;0.52;0.52;;;;;;;;;;7394268;19;20137;-91
2023/06/14 19:19:01;;;;;;;0.77;0.77;;;;;;;;;;7399268;19;20607;-92
2023/06/14 19:21:28;;;;;;;0.50;0.50;;;;;;;;;;7393814;19;20161;-90
2023/06/14 19:23:56;;;;;;;0.82;0.82;;;;;;;;;;7401213;19;20140;-88
2023/06/14 19:26:27;;;;;;;0.45;0.45;;;;;;;;;;7397738;19;20547;-87
2023/06/14 19:28:56;;;;;;;0.75;0.75;;;;;;;;;;7386689;19;20129;-87
2023/06/14 19:31:23;;;;;;;0.68;0.68;;;;;;;;;;7386748;19;20141;-86
2023/06/14 19:33:52;;;;;;;0.63;0.63;;;;;;;;;;7389046;19;20160;-90
2023/06/14 19:36:23;;;;;;;1.55;1.10;;;;;;;;;;7385718;19;20144;-86
2023/06/14 19:38:55;;;;;;;0.60;0.60;;;;;;;;;;7397122;19;20153;-86
2023/06/14 19:41:22;;;;;;;0.90;0.90;;;;;;;;;;7396859;19;20133;-85
2023/06/14 19:51:38;;;;;;;1.05;1.05;;;;;;;;;;7400601;19;20156;-90
2023/06/14 19:54:30;;;;;;;0.60;0.60;;;;;;;;;;7400266;19;20499;-90
2023/06/14 19:56:57;;;;;;;0.60;0.60;;;;;;;;;;7402098;19;20145;-91
2023/06/14 19:59:23;;;;;;;0.57;0.57;;;;;;;;;;7399031;19;20159;-90
2023/06/14 20:01:50;;;;;;;2.15;0.98;;;;;;;;;;7395888;19;20500;-90
2023/06/14 20:04:17;;;;;;;6.18;0.82;;;;;;;;;;7398380;19;20159;-89
2023/06/14 20:06:44;;;;;;;0.77;0.77;;;;;;;;;;7400363;19;20144;-89
2023/06/14 20:09:16;;;;;;;0.82;0.63;;;;;;;;;;7396047;19;20163;-88
2023/06/14 20:11:43;;;;;;;1.00;1.00;;;;;;;;;;7391445;19;20144;-90
2023/06/14 20:14:10;;;;;;;1.02;0.93;;;;;;;;;;7400362;19;20136;-88
2023/06/14 20:16:42;;;;;;;0.98;0.93;;;;;;;;;;7397719;19;20129;-88
2023/06/14 20:19:09;;;;;;;1.08;1.00;;;;;;;;;;7391641;19;20570;-91
2023/06/14 20:21:36;;;;;;;1.33;1.05;;;;;;;;;;7399676;19;20135;-91
2023/06/14 20:24:03;;;;;;;0.85;0.85;;;;;;;;;;7399824;19;20593;-90
2023/06/14 20:26:29;;;;;;;0.50;0.50;;;;;;;;;;7405603;19;20141;-89
2023/06/14 20:28:56;;;;;;;1.00;0.98;;;;;;;;;;7402993;19;20161;-90
2023/06/14 20:31:23;;;;;;;1.10;0.82;;;;;;;;;;7398436;19;20178;-89
2023/06/14 20:33:50;;;;;;;1.25;1.15;;;;;;;;;;7399819;19;20548;-89
2023/06/14 20:36:18;;;;;;;0.70;0.70;;;;;;;;;;7400671;19;20208;-91
2023/06/14 20:38:45;;;;;;;0.77;0.77;;;;;;;;;;7398184;19;20524;-90
2023/06/14 20:41:11;;;;;;;1.23;1.13;;;;;;;;;;7399140;19;20189;-90
2023/06/14 20:43:42;;;;;;;0.75;0.75;;;;;;;;;;7401277;19;20737;-90
2023/06/14 20:46:09;;;;;;;0.90;0.90;;;;;;;;;;7402319;19;20609;-90
2023/06/14 20:48:36;;;;;;;0.70;0.70;;;;;;;;;;7402590;19;20224;-90
2023/06/14 20:51:04;;;;;;;0.60;0.60;;;;;;;;;;7401550;19;20209;-91
2023/06/14 20:53:31;;;;;;;0.88;0.88;;;;;;;;;;7401114;19;20177;-88
2023/06/14 20:55:58;;;;;;;0.65;0.65;;;;;;;;;;7400648;19;20212;-88
2023/06/14 20:58:25;;;;;;;1.10;1.00;;;;;;;;;;7398655;19;20125;-86
2023/06/14 21:00:53;;;;;;;0.75;0.75;;;;;;;;;;7399234;19;20141;-87
2023/06/14 21:03:20;;;;;;;6.25;1.02;;;;;;;;;;7401180;19;20161;-87
2023/06/14 21:05:46;;;;;;;1.02;0.88;;;;;;;;;;7397965;19;20133;-87
2023/06/14 21:08:13;;;;;;;1.00;1.00;;;;;;;;;;7398756;19;20145;-87
2023/06/14 21:10:40;;;;;;;0.73;0.73;;;;;;;;;;7400632;19;20228;-86
2023/06/14 21:13:06;;;;;;;0.70;0.70;;;;;;;;;;7394263;19;20168;-87
2023/06/14 21:20:02;;;;;;;1.38;1.27;;;;;;;;;;7398400;19;20144;-86
2023/06/14 21:23:54;;;;;;;0.57;0.57;;;;;;;;;;7397483;19;20200;-86
2023/06/14 21:26:22;;;;;;;0.80;0.80;;;;;;;;;;7396519;19;20241;-88
2023/06/14 21:28:49;;;;;;;0.75;0.73;;;;;;;;;;7398554;19;20610;-87
2023/06/14 21:31:17;;;;;;;0.80;0.80;;;;;;;;;;7401313;19;20137;-87
2023/06/14 21:33:44;;;;;;;0.60;0.60;;;;;;;;;;7399919;19;20176;-87
2023/06/14 21:36:11;;;;;;;0.85;0.77;;;;;;;;;;7403568;19;20527;-87
2023/06/14 21:38:38;;;;;;;0.85;0.85;;;;;;;;;;7402029;19;20547;-87
2023/06/14 21:41:05;;;;;;;0.82;0.82;;;;;;;;;;7399719;19;20135;-87
2023/06/14 21:43:31;;;;;;;0.55;0.55;;;;;;;;;;7400378;19;20157;-87
2023/06/14 21:45:58;;;;;;;0.77;0.77;;;;;;;;;;7402733;19;20144;-87
2023/06/14 21:49:07;;;;;;;0.88;0.88;;;;;;;;;;7400240;19;20129;-88
2023/06/14 21:55:18;;;;;;;0.88;0.88;;;;;;;;;;7430472;19;20159;-88
2023/06/14 21:58:07;;;;;;;1.20;1.00;;;;;;;;;;7428176;19;20135;-87
2023/06/14 22:00:33;;;;;;;1.00;1.00;;;;;;;;;;7427236;19;20182;-87
2023/06/14 22:03:01;;;;;;;0.65;0.65;;;;;;;;;;7429560;19;20157;-87
2023/06/14 22:08:56;;;;;;;0.45;0.45;;;;;;;;;;7431405;19;20131;-87
2023/06/14 22:11:29;;;;;;;0.40;0.40;;;;;;;;;;7427314;19;20169;-88
2023/06/14 22:13:57;;;;;;;0.40;0.40;;;;;;;;;;7417917;19;20141;-88
2023/06/14 22:16:25;;;;;;;0.68;0.65;;;;;;;;;;7394260;19;20137;-87
2023/06/14 22:18:51;;;;;;;0.82;0.80;;;;;;;;;;7398446;19;20165;-87
2023/06/14 22:21:19;;;;;;;0.70;0.70;;;;;;;;;;7400331;19;20499;-87
2023/06/14 22:23:46;;;;;;;0.55;0.55;;;;;;;;;;7400683;19;20157;-88
2023/06/14 22:26:13;;;;;;;0.50;0.50;;;;;;;;;;7397535;19;20568;-88
2023/06/14 22:28:48;;;;;;;0.73;0.70;;;;;;;;;;7395644;19;20149;-88
2023/06/14 22:31:16;;;;;;;1.35;0.90;;;;;;;;;;7394334;19;20145;-87
2023/06/14 22:33:43;;;;;;;0.60;0.60;;;;;;;;;;7394945;19;20184;-87
2023/06/14 22:36:15;;;;;;;1.10;1.10;;;;;;;;;;7396655;19;20133;-87
2023/06/14 22:38:45;;;;;;;0.55;0.55;;;;;;;;;;7407130;19;20141;-87
2023/06/14 22:41:12;;;;;;;0.85;0.85;;;;;;;;;;7405211;19;20133;-87
2023/06/14 22:43:41;;;;;;;0.70;0.70;;;;;;;;;;7401129;19;20141;-88
2023/06/14 22:46:11;;;;;;;0.32;0.32;;;;;;;;;;7398992;19;20145;-87
2023/06/14 22:48:44;;;;;;;0.85;0.85;;;;;;;;;;7395942;19;20157;-87
2023/06/14 22:51:12;;;;;;;0.47;0.47;;;;;;;;;;7393232;19;20728;-87
2023/06/14 22:53:39;;;;;;;0.60;0.60;;;;;;;;;;7394629;19;20153;-88
2023/06/14 22:56:07;;;;;;;1.38;0.73;;;;;;;;;;7392848;19;20141;-87
2023/06/14 22:58:35;;;;;;;0.52;0.52;;;;;;;;;;7397000;19;20141;-88
2023/06/14 23:01:02;;;;;;;1.00;0.88;;;;;;;;;;7396766;19;20160;-88
2023/06/14 23:03:29;;;;;;;0.70;0.70;;;;;;;;;;7394646;19;20179;-87
2023/06/14 23:05:58;;;;;;;0.63;0.63;;;;;;;;;;7394295;19;20145;-88
2023/06/14 23:08:26;;;;;;;0.50;0.50;;;;;;;;;;7397318;19;20137;-88
2023/06/14 23:10:53;;;;;;;1.13;1.05;;;;;;;;;;7394599;19;20182;-88
2023/06/14 23:13:19;;;;;;;0.63;0.57;;;;;;;;;;7396585;19;20205;-89
2023/06/14 23:15:47;;;;;;;0.52;0.52;;;;;;;;;;7395208;19;20151;-89
2023/06/14 23:18:14;;;;;;;0.43;0.43;;;;;;;;;;7397126;19;20125;-88
2023/06/14 23:20:41;;;;;;;0.75;0.75;;;;;;;;;;7396848;19;20145;-89
2023/06/14 23:23:08;;;;;;;1.27;0.93;;;;;;;;;;7394287;19;20642;-89
2023/06/14 23:25:42;;;;;;;0.75;0.75;;;;;;;;;;7394495;19;20148;-89
2023/06/14 23:28:09;;;;;;;0.63;0.63;;;;;;;;;;7395752;19;20537;-89
2023/06/14 23:30:37;;;;;;;0.50;0.50;;;;;;;;;;7394539;19;20145;-89
2023/06/14 23:33:03;;;;;;;0.93;0.93;;;;;;;;;;7394140;19;20862;-89
2023/06/14 23:35:30;;;;;;;0.50;0.50;;;;;;;;;;7398718;19;20169;-89
2023/06/14 23:38:03;;;;;;;0.63;0.63;;;;;;;;;;7404803;19;20153;-89
2023/06/14 23:40:32;;;;;;;0.70;0.70;;;;;;;;;;7404887;19;20144;-89
2023/06/14 23:43:05;;;;;;;0.65;0.60;;;;;;;;;;7398715;19;20149;-90
2023/06/14 23:45:36;;;;;;;0.40;0.40;;;;;;;;;;7398096;19;20137;-90
2023/06/14 23:48:03;;;;;;;0.95;0.65;;;;;;;;;;7396455;19;20137;-89
2023/06/14 23:50:30;;;;;;;0.50;0.50;;;;;;;;;;7398922;19;20614;-90
2023/06/14 23:52:59;;;;;;;0.50;0.50;;;;;;;;;;7397604;19;20181;-89
2023/06/14 23:55:37;;;;;;;0.43;0.43;;;;;;;;;;7398587;19;20141;-89
2023/06/14 23:58:04;;;;;;;0.50;0.50;;;;;;;;;;7400798;19;20619;-90
